Time;durP1;ratioP1;P1;durP2;ratioP2;P2;SDS_P1;SDS_P2;PMS_P1;PMS_P2;Temp;Humidity;BMP_temperature;BMP_pressure;BME280_temperature;BME280_humidity;BME280_pressure;Samples;Min_cycle;Max_cycle;Signal;HPM_P1;HPM_P2
2022/05/04 00:01:04;;;;;;;;;;;11.10;99.90;;;;;;5116647;27;20059;-88
2022/05/04 00:03:30;;;;;;;5.32;2.90;;;11.00;99.90;;;;;;5117278;27;20002;-88
2022/05/04 00:05:55;;;;;;;8.32;2.50;;;11.00;99.90;;;;;;5117049;27;20403;-89
2022/05/04 00:08:21;;;;;;;;;;;10.90;99.90;;;;;;5117154;27;20027;-88
2022/05/04 00:10:46;;;;;;;4.82;2.83;;;10.90;99.90;;;;;;5116800;27;19904;-89
2022/05/04 00:13:12;;;;;;;;;;;10.80;99.90;;;;;;5114906;27;20061;-89
2022/05/04 00:15:38;;;;;;;4.00;2.67;;;10.80;99.90;;;;;;5113447;27;20435;-89
2022/05/04 00:18:03;;;;;;;;;;;10.70;99.90;;;;;;5116532;27;20156;-89
2022/05/04 00:20:29;;;;;;;3.58;2.70;;;10.70;99.90;;;;;;5116061;27;20395;-90
2022/05/04 00:22:55;;;;;;;;;;;10.60;99.90;;;;;;5115945;27;20027;-89
2022/05/04 00:25:20;;;;;;;3.90;2.90;;;10.60;99.90;;;;;;5114749;27;19915;-89
2022/05/04 00:27:46;;;;;;;;;;;10.60;99.90;;;;;;5115885;27;20491;-89
2022/05/04 00:30:12;;;;;;;7.40;3.60;;;10.60;99.90;;;;;;5115913;27;19926;-88
2022/05/04 00:32:38;;;;;;;;;;;10.60;99.90;;;;;;5116513;27;20015;-88
2022/05/04 00:35:04;;;;;;;5.10;3.22;;;10.60;99.90;;;;;;5115882;27;19903;-89
2022/05/04 00:37:29;;;;;;;;;;;10.60;99.90;;;;;;5116492;27;20159;-88
2022/05/04 00:39:55;;;;;;;5.00;3.45;;;10.60;99.90;;;;;;5115643;27;19937;-89
2022/05/04 00:42:21;;;;;;;;;;;10.50;99.90;;;;;;5116168;27;20027;-90
2022/05/04 00:44:49;;;;;;;7.93;4.18;;;10.50;99.90;;;;;;5115507;27;19915;-89
2022/05/04 00:47:15;;;;;;;7.38;4.45;;;10.40;99.90;;;;;;5115127;27;20459;-89
2022/05/04 00:49:42;;;;;;;7.50;3.88;;;10.40;99.90;;;;;;5115306;27;20023;-89
2022/05/04 00:52:11;;;;;;;6.13;3.75;;;10.40;99.90;;;;;;5115765;27;20055;-89
2022/05/04 00:54:37;;;;;;;6.00;3.58;;;10.30;99.90;;;;;;5116608;27;20019;-89
2022/05/04 00:57:04;;;;;;;6.22;3.45;;;10.30;99.90;;;;;;5120042;27;20031;-90
2022/05/04 00:59:32;;;;;;;5.75;3.58;;;10.30;99.90;;;;;;5113968;27;20046;-88
2022/05/04 01:01:58;;;;;;;4.35;2.83;;;10.30;99.90;;;;;;5116427;27;20076;-89
2022/05/04 01:04:24;;;;;;;7.68;3.35;;;10.30;99.90;;;;;;5115232;27;20050;-89
2022/05/04 01:06:50;;;;;;;8.00;3.90;;;10.30;99.90;;;;;;5115110;27;20073;-90
2022/05/04 01:09:15;;;;;;;;;;;10.30;99.90;;;;;;5115121;27;20055;-88
2022/05/04 01:11:42;;;;;;;5.55;3.25;;;10.30;99.90;;;;;;5114723;27;19943;-89
2022/05/04 01:14:10;;;;;;;5.53;3.15;;;10.30;99.90;;;;;;5114122;27;20034;-89
2022/05/04 01:16:42;;;;;;;7.47;3.05;;;10.20;99.90;;;;;;5115204;27;20041;-89
2022/05/04 01:19:09;;;;;;;4.55;3.67;;;10.20;99.90;;;;;;5114166;27;20031;-89
2022/05/04 01:21:35;;;;;;;4.97;3.38;;;10.20;99.90;;;;;;5114457;27;20034;-88
2022/05/04 01:24:01;;;;;;;;;;;10.20;99.90;;;;;;5115092;27;20523;-89
2022/05/04 01:26:27;;;;;;;7.35;3.40;;;10.10;99.90;;;;;;5114885;27;19954;-88
2022/05/04 01:28:53;;;;;;;6.38;3.75;;;10.10;99.90;;;;;;5114717;27;20072;-90
2022/05/04 01:31:18;;;;;;;5.20;3.92;;;10.00;99.90;;;;;;5114944;27;20115;-88
2022/05/04 01:33:44;;;;;;;7.80;5.47;;;10.00;99.90;;;;;;5114441;27;20060;-89
2022/05/04 01:36:10;;;;;;;;;;;10.00;99.90;;;;;;5114612;27;20480;-89
2022/05/04 01:38:36;;;;;;;4.43;3.22;;;10.00;99.90;;;;;;5114429;27;20023;-89
2022/05/04 01:41:03;;;;;;;8.40;3.28;;;10.00;99.90;;;;;;5114565;27;20060;-89
2022/05/04 01:43:29;;;;;;;5.53;3.92;;;10.00;99.90;;;;;;5113958;27;20015;-89
2022/05/04 01:45:54;;;;;;;;;;;10.00;99.90;;;;;;5115403;27;20046;-89
2022/05/04 01:48:20;;;;;;;5.60;3.80;;;10.00;99.90;;;;;;5114628;27;20002;-89
2022/05/04 01:50:46;;;;;;;4.75;3.58;;;10.00;99.90;;;;;;5114470;28;20090;-88
2022/05/04 01:53:12;;;;;;;;;;;10.00;99.90;;;;;;5114546;28;20554;-89
2022/05/04 01:55:39;;;;;;;6.63;3.58;;;10.00;99.90;;;;;;5132771;28;20287;-89
2022/05/04 01:58:05;;;;;;;5.00;3.03;;;10.00;99.90;;;;;;5114155;28;20046;-89
2022/05/04 02:00:30;;;;;;;;;;;10.00;99.90;;;;;;5091420;28;20056;-89
2022/05/04 02:02:58;;;;;;;3.88;3.13;;;9.90;99.90;;;;;;5091024;28;19929;-89
2022/05/04 02:05:24;;;;;;;7.90;3.15;;;9.90;99.90;;;;;;5090552;28;20036;-88
2022/05/04 02:07:49;;;;;;;;;;;9.90;99.90;;;;;;5091460;28;20043;-89
2022/05/04 02:10:15;;;;;;;6.40;4.15;;;9.90;99.90;;;;;;5090829;28;19911;-90
2022/05/04 02:12:41;;;;;;;;;;;9.80;99.90;;;;;;5092388;28;20031;-89
2022/05/04 02:15:08;;;;;;;6.03;3.50;;;9.80;99.90;;;;;;5091554;28;19912;-89
2022/05/04 02:17:35;;;;;;;5.57;3.25;;;9.70;99.90;;;;;;5090502;28;20035;-88
2022/05/04 02:20:01;;;;;;;5.00;3.20;;;9.70;99.90;;;;;;5092531;28;20392;-89
2022/05/04 02:22:27;;;;;;;6.55;3.72;;;9.70;99.90;;;;;;5090860;28;20491;-88
2022/05/04 02:24:52;;;;;;;;;;;9.60;99.90;;;;;;5091651;28;20036;-88
2022/05/04 02:27:18;;;;;;;4.38;3.63;;;9.60;99.90;;;;;;5093772;28;20331;-88
2022/05/04 02:29:44;;;;;;;;;;;9.50;99.90;;;;;;5094426;28;20542;-88
2022/05/04 02:32:09;;;;;;;6.78;3.40;;;9.50;99.90;;;;;;5096150;28;19904;-88
2022/05/04 02:37:54;;;;;;;;;;;9.50;99.90;;;;;;5094735;28;20020;-89
2022/05/04 02:40:06;;;;;;;8.05;3.55;;;9.50;99.90;;;;;;5095477;28;20081;-88
2022/05/04 02:42:31;;;;;;;3.92;3.05;;;9.50;99.90;;;;;;5094120;28;20032;-89
2022/05/04 02:44:58;;;;;;;;;;;9.50;99.90;;;;;;5094115;28;20024;-89
2022/05/04 02:47:24;;;;;;;4.88;3.65;;;9.50;99.90;;;;;;5093512;28;19958;-89
2022/05/04 02:49:49;;;;;;;;;;;9.50;99.90;;;;;;5094883;28;20020;-89
2022/05/04 02:52:15;;;;;;;7.95;3.13;;;9.50;99.90;;;;;;5092203;28;19904;-89
2022/05/04 02:54:40;;;;;;;;;;;9.40;99.90;;;;;;5094588;28;20101;-88
2022/05/04 02:57:06;;;;;;;4.78;3.55;;;9.40;99.90;;;;;;5092306;28;20382;-89
2022/05/04 02:59:32;;;;;;;;;;;9.40;99.90;;;;;;5114475;27;20525;-88
2022/05/04 03:04:42;;;;;;;4.30;3.50;;;9.40;99.90;;;;;;5136489;27;20046;-88
2022/05/04 03:07:07;;;;;;;;;;;9.40;99.90;;;;;;5117798;27;20027;-89
2022/05/04 03:09:33;;;;;;;6.30;3.38;;;9.50;99.90;;;;;;5117128;27;19904;-89
2022/05/04 03:11:59;;;;;;;;;;;9.50;99.90;;;;;;5117055;27;20038;-88
2022/05/04 03:14:27;;;;;;;7.53;3.45;;;9.60;99.90;;;;;;5117154;27;19938;-88
2022/05/04 03:16:53;;;;;;;4.63;2.95;;;9.60;99.90;;;;;;5117276;27;20555;-87
2022/05/04 03:19:20;;;;;;;6.25;4.15;;;9.70;99.90;;;;;;5116773;27;20061;-86
2022/05/04 03:21:47;;;;;;;8.82;5.22;;;9.70;99.90;;;;;;5117137;27;20498;-86
2022/05/04 03:24:12;;;;;;;11.25;5.20;;;9.80;99.90;;;;;;5116969;27;20027;-87
2022/05/04 03:26:38;;;;;;;;;;;9.80;99.90;;;;;;5117440;27;20031;-87
2022/05/04 03:29:04;;;;;;;11.38;5.60;;;9.90;99.90;;;;;;5117236;27;19907;-88
2022/05/04 03:31:30;;;;;;;;;;;10.00;99.90;;;;;;5117231;27;20023;-87
2022/05/04 03:33:56;;;;;;;9.57;5.30;;;10.20;99.90;;;;;;5116770;27;19907;-87
2022/05/04 03:36:21;;;;;;;;;;;10.20;99.90;;;;;;5116844;27;20023;-88
2022/05/04 03:38:47;;;;;;;14.25;5.78;;;10.20;99.90;;;;;;5116789;27;20023;-87
2022/05/04 03:41:13;;;;;;;;;;;10.30;99.90;;;;;;5118811;27;20079;-87
2022/05/04 03:43:39;;;;;;;10.40;4.68;;;10.40;99.90;;;;;;5134963;27;19903;-88
2022/05/04 03:46:17;;;;;;;;;;;10.40;99.90;;;;;;5116829;27;20070;-89
2022/05/04 03:48:44;;;;;;;6.22;3.75;;;10.50;99.90;;;;;;5117005;27;19981;-88
2022/05/04 03:51:19;;;;;;;5.88;3.22;;;10.60;99.90;;;;;;5117288;27;20027;-86
2022/05/04 03:53:49;;;;;;;4.50;2.92;;;10.60;99.90;;;;;;5117492;27;20038;-87
2022/05/04 03:56:15;;;;;;;6.43;2.65;;;10.70;99.90;;;;;;5116479;27;20031;-88
2022/05/04 03:58:42;;;;;;;5.50;2.72;;;10.80;99.90;;;;;;5118495;27;20317;-88
2022/05/04 04:01:08;;;;;;;5.50;2.17;;;10.80;99.90;;;;;;5137708;27;20023;-87
2022/05/04 04:03:33;;;;;;;5.38;2.60;;;10.90;99.90;;;;;;5116548;27;20031;-88
2022/05/04 04:05:59;;;;;;;;;;;11.00;99.90;;;;;;5117605;27;20444;-88
2022/05/04 04:08:25;;;;;;;5.88;3.17;;;11.00;99.90;;;;;;5117177;27;19974;-86
2022/05/04 04:10:51;;;;;;;;;;;11.10;99.90;;;;;;5116957;27;20083;-87
2022/05/04 04:13:17;;;;;;;6.35;3.90;;;11.20;99.90;;;;;;5116979;27;19907;-86
2022/05/04 04:15:42;;;;;;;;;;;11.30;99.90;;;;;;5116354;27;20027;-89
2022/05/04 04:18:09;;;;;;;12.27;7.38;;;11.40;99.90;;;;;;5118642;27;20524;-86
2022/05/04 04:23:22;;;;;;;9.82;6.35;;;11.70;99.90;;;;;;5145235;27;20486;-86
2022/05/04 04:25:48;;;;;;;;;;;11.70;99.90;;;;;;5121877;27;20031;-87
2022/05/04 04:28:14;;;;;;;24.15;10.02;;;11.80;99.90;;;;;;5121628;27;19910;-87
2022/05/04 04:30:40;;;;;;;;;;;12.00;99.90;;;;;;5128164;27;20031;-88
2022/05/04 04:33:06;;;;;;;19.23;10.23;;;12.10;99.90;;;;;;5125113;27;20002;-87
2022/05/04 04:35:34;;;;;;;19.27;11.13;;;12.20;99.90;;;;;;5119911;27;20360;-86
2022/05/04 04:38:01;;;;;;;16.95;9.10;;;12.40;99.90;;;;;;5111300;27;20036;-86
2022/05/04 04:40:26;;;;;;;26.40;12.27;;;12.60;99.90;;;;;;5110622;27;20052;-86
2022/05/04 04:42:52;;;;;;;;;;;12.90;99.90;;;;;;5106140;27;20131;-86
2022/05/04 04:45:18;;;;;;;12.60;7.63;;;13.20;99.90;;;;;;5106110;27;19980;-87
2022/05/04 04:47:47;;;;;;;;;;;13.40;99.90;;;;;;5111806;27;20054;-86
2022/05/04 04:50:13;;;;;;;14.93;8.55;;;13.70;99.90;;;;;;5107233;27;19923;-87
2022/05/04 04:52:39;;;;;;;14.20;8.90;;;14.00;99.90;;;;;;5109639;27;20044;-86
2022/05/04 04:55:05;;;;;;;;;;;14.40;99.90;;;;;;5117173;27;20027;-87
2022/05/04 04:57:33;;;;;;;13.95;8.18;;;14.80;99.90;;;;;;5114349;27;19919;-87
2022/05/04 04:59:59;;;;;;;19.05;7.90;;;15.20;99.90;;;;;;5115885;27;20055;-86
2022/05/04 05:02:25;;;;;;;15.35;8.35;;;15.70;99.90;;;;;;5109548;27;20035;-87
2022/05/04 05:04:50;;;;;;;;;;;16.10;99.90;;;;;;5091374;28;20035;-87
2022/05/04 05:07:16;;;;;;;7.32;3.72;;;16.60;99.90;;;;;;5091037;28;19955;-87
2022/05/04 05:09:42;;;;;;;5.63;3.38;;;17.00;99.90;;;;;;5108604;27;20124;-86
2022/05/04 05:12:08;;;;;;;3.00;1.77;;;17.40;99.30;;;;;;5110742;27;20883;-87
2022/05/04 05:17:17;;;;;;;4.22;1.90;;;18.30;91.20;;;;;;5099050;27;20156;-89
2022/05/04 05:19:43;;;;;;;4.32;1.88;;;19.00;80.00;;;;;;5111985;27;20411;-88
2022/05/04 05:22:09;;;;;;;3.83;1.85;;;19.40;75.10;;;;;;5109456;27;20039;-88
2022/05/04 05:24:35;;;;;;;4.25;1.83;;;19.70;73.30;;;;;;5101627;27;20039;-88
2022/05/04 05:27:01;;;;;;;3.42;1.83;;;19.80;72.40;;;;;;5105254;27;20050;-88
2022/05/04 05:29:26;;;;;;;2.88;1.52;;;19.90;72.30;;;;;;5104549;27;20061;-89
2022/05/04 05:31:52;;;;;;;3.67;1.63;;;19.80;73.10;;;;;;5102587;27;20039;-89
2022/05/04 05:34:17;;;;;;;10.13;2.40;;;19.90;72.70;;;;;;5110588;27;20403;-88
2022/05/04 05:36:44;;;;;;;6.47;2.05;;;19.80;73.10;;;;;;5105234;27;20510;-88
2022/05/04 05:39:10;;;;;;;5.28;1.80;;;19.80;75.00;;;;;;5105851;27;20036;-88
2022/05/04 05:41:35;;;;;;;4.10;2.40;;;19.70;76.50;;;;;;5084442;28;20463;-89
2022/05/04 05:44:01;;;;;;;5.65;1.92;;;19.60;78.40;;;;;;5078543;28;20038;-88
2022/05/04 05:46:29;;;;;;;5.53;2.20;;;19.60;83.40;;;;;;5103641;28;20031;-88
2022/05/04 05:48:55;;;;;;;3.60;2.20;;;19.80;81.50;;;;;;5107416;27;20036;-88
2022/05/04 05:51:20;;;;;;;3.92;2.10;;;20.00;78.70;;;;;;5106038;27;20500;-88
2022/05/04 05:53:46;;;;;;;4.03;1.92;;;20.00;76.50;;;;;;5106512;28;20032;-89
2022/05/04 05:56:12;;;;;;;4.22;2.60;;;19.80;75.40;;;;;;5105131;28;20488;-88
2022/05/04 05:58:37;;;;;;;3.20;1.95;;;19.60;77.40;;;;;;5110649;28;20051;-89
2022/05/04 06:01:03;;;;;;;6.55;1.77;;;19.40;77.90;;;;;;5109232;27;20043;-88
2022/05/04 06:03:29;;;;;;;9.15;2.50;;;19.10;80.00;;;;;;5113125;27;20039;-88
2022/05/04 06:05:55;;;;;;;6.60;2.38;;;18.80;83.50;;;;;;5110432;27;20170;-88
2022/05/04 06:08:21;;;;;;;5.53;2.42;;;18.70;88.60;;;;;;5111156;27;20122;-88
2022/05/04 06:10:46;;;;;;;8.02;2.25;;;18.50;90.60;;;;;;5111234;27;20575;-88
2022/05/04 06:13:12;;;;;;;5.55;2.58;;;18.40;91.50;;;;;;5110729;27;20408;-88
2022/05/04 06:15:38;;;;;;;4.03;2.08;;;18.30;93.10;;;;;;5105271;27;20042;-88
2022/05/04 06:18:04;;;;;;;3.15;2.15;;;18.20;93.90;;;;;;5106185;27;20483;-87
2022/05/04 06:20:31;;;;;;;7.25;2.97;;;18.10;94.60;;;;;;5112037;27;20034;-88
2022/05/04 06:22:57;;;;;;;5.07;2.58;;;18.20;94.10;;;;;;5096070;27;20476;-87
2022/05/04 06:25:22;;;;;;;6.13;2.15;;;18.20;93.10;;;;;;5104678;27;20108;-88
2022/05/04 06:27:48;;;;;;;4.22;2.40;;;18.30;92.70;;;;;;5106734;27;20069;-86
2022/05/04 06:35:43;;;;;;;8.35;2.00;;;18.80;84.60;;;;;;5077994;28;20090;-88
2022/05/04 06:38:10;;;;;;;5.82;2.58;;;18.80;85.40;;;;;;5082517;27;20147;-89
2022/05/04 06:40:37;;;;;;;3.40;2.22;;;19.30;86.20;;;;;;5101261;27;20116;-88
2022/05/04 06:43:03;;;;;;;6.88;2.00;;;19.90;80.10;;;;;;5100123;27;20043;-88
2022/05/04 06:45:29;;;;;;;4.65;1.67;;;20.10;75.30;;;;;;5109045;27;20507;-88
2022/05/04 06:47:55;;;;;;;5.60;1.77;;;20.40;73.70;;;;;;5110537;27;20061;-88
2022/05/04 06:50:21;;;;;;;3.85;1.95;;;20.50;72.00;;;;;;5109799;27;20031;-88
2022/05/04 06:52:46;;;;;;;5.65;1.90;;;20.70;71.30;;;;;;5106394;27;20396;-89
2022/05/04 06:55:12;;;;;;;3.35;1.88;;;20.70;69.20;;;;;;5102866;27;20503;-88
2022/05/04 06:57:38;;;;;;;6.15;2.08;;;20.70;68.60;;;;;;5112031;27;20028;-89
2022/05/04 07:00:04;;;;;;;4.97;2.17;;;20.80;67.90;;;;;;5094819;27;20045;-89
2022/05/04 07:02:34;;;;;;;6.85;2.50;;;21.00;64.90;;;;;;5119437;27;20022;-89
2022/05/04 07:05:00;;;;;;;4.80;1.85;;;21.30;61.80;;;;;;5117167;27;20488;-90
2022/05/04 07:07:26;;;;;;;8.70;1.77;;;22.20;61.70;;;;;;5106389;28;20027;-89
2022/05/04 07:09:53;;;;;;;6.38;1.90;;;22.90;56.60;;;;;;5123699;27;20076;-86
2022/05/04 07:12:19;;;;;;;5.90;1.98;;;23.10;55.50;;;;;;5115806;27;20487;-87
2022/05/04 07:14:45;;;;;;;3.42;1.60;;;23.10;54.20;;;;;;5133913;27;20052;-87
2022/05/04 07:17:10;;;;;;;3.80;1.65;;;23.20;53.30;;;;;;5115322;27;20038;-86
2022/05/04 07:19:36;;;;;;;5.55;1.58;;;23.20;52.20;;;;;;5115461;27;20389;-86
2022/05/04 07:22:01;;;;;;;5.00;1.45;;;23.10;51.70;;;;;;5133277;27;20026;-86
2022/05/04 07:24:27;;;;;;;5.70;2.10;;;23.00;51.90;;;;;;5133477;27;20380;-86
2022/05/04 07:26:53;;;;;;;2.28;1.50;;;22.90;50.80;;;;;;5134479;27;20027;-90
2022/05/04 07:29:19;;;;;;;2.85;1.33;;;22.70;49.90;;;;;;5116221;27;20034;-91
2022/05/04 07:31:44;;;;;;;3.13;1.90;;;22.60;51.10;;;;;;5117014;27;20439;-90
2022/05/04 07:34:14;;;;;;;3.33;1.77;;;22.90;51.70;;;;;;5130803;27;20578;-92
2022/05/04 07:36:40;;;;;;;6.00;1.27;;;23.70;50.60;;;;;;5133598;27;20448;-90
2022/05/04 07:39:05;;;;;;;2.42;1.45;;;24.50;48.20;;;;;;5133382;27;20055;-88
2022/05/04 07:44:15;;;;;;;2.03;1.40;;;25.40;45.50;;;;;;5134752;27;20104;-87
2022/05/04 07:46:45;;;;;;;5.05;1.90;;;25.80;43.80;;;;;;5133626;27;20039;-86
2022/05/04 07:49:11;;;;;;;8.13;2.60;;;26.30;43.50;;;;;;5133203;27;20031;-87
2022/05/04 07:51:37;;;;;;;4.32;2.63;;;26.80;41.80;;;;;;5133105;27;20016;-88
2022/05/04 07:54:03;;;;;;;4.18;1.70;;;26.80;40.00;;;;;;5132703;27;20381;-87
2022/05/04 07:56:29;;;;;;;3.60;2.33;;;27.20;38.70;;;;;;5133116;27;20658;-86
2022/05/04 07:58:54;;;;;;;4.97;2.20;;;27.50;37.90;;;;;;5131080;27;20065;-85
2022/05/04 08:04:21;;;;;;;3.75;2.10;;;28.00;38.80;;;;;;5068050;28;20054;-80
2022/05/04 08:06:47;;;;;;;11.50;2.55;;;28.00;37.50;;;;;;5116306;27;20066;-83
2022/05/04 08:09:13;;;;;;;5.70;2.35;;;28.30;37.90;;;;;;5129582;27;20031;-83
2022/05/04 08:11:40;;;;;;;4.85;2.20;;;29.00;35.60;;;;;;5118621;27;20038;-82
2022/05/04 08:14:07;;;;;;;3.67;1.75;;;29.20;36.10;;;;;;5111255;27;20121;-83
2022/05/04 08:16:33;;;;;;;6.30;1.27;;;29.70;33.90;;;;;;5111305;27;20099;-82
2022/05/04 08:19:00;;;;;;;1.73;1.30;;;30.20;31.10;;;;;;5110995;27;20498;-83
2022/05/04 08:21:26;;;;;;;5.22;1.60;;;30.30;29.10;;;;;;5110967;27;20024;-82
2022/05/04 08:23:52;;;;;;;1.88;1.30;;;30.70;29.00;;;;;;5129530;27;20188;-82
2022/05/04 08:26:17;;;;;;;6.00;2.20;;;30.60;28.60;;;;;;5128778;27;20118;-83
2022/05/04 08:28:43;;;;;;;2.60;1.35;;;30.80;28.50;;;;;;5110015;27;20550;-82
2022/05/04 08:31:09;;;;;;;2.63;1.33;;;31.00;28.40;;;;;;5110254;27;20688;-81
2022/05/04 08:33:35;;;;;;;4.78;1.95;;;30.90;28.50;;;;;;5129570;27;20042;-82
2022/05/04 08:36:01;;;;;;;3.97;1.80;;;31.30;28.40;;;;;;5110036;27;20039;-82
2022/05/04 08:38:27;;;;;;;4.15;1.77;;;31.30;28.70;;;;;;5128627;27;20072;-82
2022/05/04 08:40:56;;;;;;;3.80;1.92;;;30.80;26.90;;;;;;5110153;27;20495;-82
2022/05/04 08:43:26;;;;;;;5.95;1.83;;;30.40;28.00;;;;;;5110790;27;20023;-87
2022/05/04 08:45:53;;;;;;;7.65;1.63;;;29.90;28.50;;;;;;5115100;27;20031;-87
2022/05/04 08:48:20;;;;;;;4.35;1.73;;;30.00;29.30;;;;;;5114497;27;20125;-87
2022/05/04 08:50:46;;;;;;;2.72;2.10;;;30.40;29.10;;;;;;5132763;27;20027;-87
2022/05/04 08:53:13;;;;;;;3.75;2.17;;;30.30;28.20;;;;;;5113207;27;20019;-88
2022/05/04 08:55:40;;;;;;;3.63;2.13;;;30.20;28.80;;;;;;5094928;28;20020;-89
2022/05/04 08:58:06;;;;;;;5.97;2.15;;;30.50;29.40;;;;;;5095246;28;20031;-89
2022/05/04 09:00:32;;;;;;;5.47;1.88;;;30.60;28.20;;;;;;5093888;28;20044;-88
2022/05/04 09:02:58;;;;;;;3.15;1.55;;;30.60;27.80;;;;;;5094181;28;20034;-88
2022/05/04 09:05:26;;;;;;;3.22;1.90;;;29.70;28.50;;;;;;5096126;28;20060;-88
2022/05/04 09:07:56;;;;;;;7.50;2.50;;;28.60;29.80;;;;;;5094540;28;20016;-86
2022/05/04 09:10:24;;;;;;;6.22;2.08;;;28.50;30.50;;;;;;5094511;28;20036;-86
2022/05/04 09:12:52;;;;;;;5.07;2.05;;;28.30;31.30;;;;;;5098905;27;20384;-87
2022/05/04 09:15:20;;;;;;;3.75;1.90;;;28.60;30.80;;;;;;5132147;27;20060;-86
2022/05/04 09:17:46;;;;;;;7.55;2.20;;;28.50;30.90;;;;;;5131397;27;20045;-87
2022/05/04 09:22:56;;;;;;;4.57;2.33;;;27.60;32.30;;;;;;5131695;27;20497;-84
2022/05/04 09:25:25;;;;;;;4.03;2.17;;;26.90;33.60;;;;;;5123863;27;20130;-89
2022/05/04 09:27:51;;;;;;;3.50;1.95;;;26.10;34.80;;;;;;5093850;28;20038;-90
2022/05/04 09:30:24;;;;;;;3.28;2.20;;;25.30;36.30;;;;;;5094499;28;20027;-88
2022/05/04 09:32:50;;;;;;;4.72;2.30;;;24.50;37.70;;;;;;5094441;28;20110;-89
2022/05/04 09:35:17;;;;;;;4.20;2.65;;;24.10;38.60;;;;;;5111884;28;20055;-86
2022/05/04 09:46:03;;;;;;;6.53;2.20;;;23.10;40.50;;;;;;5111782;28;20035;-88
2022/05/04 09:48:31;;;;;;;7.25;2.33;;;23.00;41.30;;;;;;5093517;28;20035;-87
2022/05/04 09:51:02;;;;;;;5.38;2.38;;;23.20;42.30;;;;;;5094264;28;20019;-87
2022/05/04 09:53:27;;;;;;;7.47;2.63;;;23.50;42.10;;;;;;5113694;28;20035;-90
2022/05/04 09:55:56;;;;;;;8.52;2.65;;;24.40;44.50;;;;;;5114065;28;20046;-91
2022/05/04 09:58:31;;;;;;;6.28;2.03;;;25.00;41.60;;;;;;5113482;28;20030;-89
2022/05/04 10:01:00;;;;;;;3.50;2.10;;;24.90;41.90;;;;;;5113914;28;20028;-90
2022/05/04 10:03:26;;;;;;;4.55;2.00;;;24.70;43.40;;;;;;5113346;28;20268;-87
2022/05/04 10:05:54;;;;;;;6.72;2.10;;;24.30;45.10;;;;;;5113684;28;20037;-86
2022/05/04 10:08:21;;;;;;;6.55;2.35;;;23.90;46.30;;;;;;5113798;28;20027;-85
2022/05/04 10:10:49;;;;;;;5.55;2.28;;;23.70;45.60;;;;;;5132166;28;20452;-86
2022/05/04 10:13:18;;;;;;;17.40;2.58;;;23.20;46.60;;;;;;5113218;28;20030;-89
2022/05/04 10:15:45;;;;;;;15.38;2.60;;;22.80;47.90;;;;;;5100022;28;20023;-87
2022/05/04 10:18:21;;;;;;;5.88;2.42;;;22.20;49.00;;;;;;5113534;28;20035;-87
2022/05/04 10:21:06;;;;;;;9.20;2.88;;;21.90;51.70;;;;;;5107919;28;20024;-80
2022/05/04 10:23:37;;;;;;;8.60;2.30;;;21.40;55.70;;;;;;5121324;28;20110;-80
2022/05/04 10:26:04;;;;;;;8.15;2.92;;;21.10;61.50;;;;;;5126641;28;20031;-79
2022/05/04 10:28:37;;;;;;;10.38;2.83;;;20.80;68.00;;;;;;5108111;28;20080;-79
2022/05/04 10:31:10;;;;;;;11.93;3.58;;;20.50;78.90;;;;;;5107144;28;20034;-79
2022/05/04 10:33:36;;;;;;;11.52;3.60;;;20.30;94.80;;;;;;5126449;28;20019;-77
2022/05/04 10:36:28;;;;;;;11.00;3.88;;;20.10;97.60;;;;;;5108907;28;20015;-80
2022/05/04 10:38:59;;;;;;;3.95;2.78;;;20.00;99.90;;;;;;5126704;28;20030;-80
2022/05/04 10:41:45;;;;;;;11.57;4.45;;;19.90;99.90;;;;;;5107935;28;20061;-79
2022/05/04 10:44:11;;;;;;;10.10;4.43;;;19.80;99.90;;;;;;5087571;28;20057;-79
2022/05/04 10:46:41;;;;;;;19.15;4.65;;;19.60;99.90;;;;;;5107737;28;20118;-81
2022/05/04 10:49:13;;;;;;;16.73;2.95;;;19.40;99.90;;;;;;5105468;27;20066;-77
2022/05/04 10:51:41;;;;;;;14.65;4.00;;;19.10;99.90;;;;;;5130535;27;20034;-81
2022/05/04 10:54:12;;;;;;;14.13;3.15;;;18.70;99.90;;;;;;5130371;27;20051;-80
2022/05/04 10:56:47;;;;;;;5.57;2.17;;;18.50;99.90;;;;;;5111999;27;20031;-78
2022/05/04 10:59:33;;;;;;;5.85;2.00;;;18.20;95.60;;;;;;5106789;27;20114;-84
2022/05/04 11:02:04;;;;;;;6.38;2.47;;;17.80;94.70;;;;;;5094088;28;20135;-87
2022/05/04 11:04:30;;;;;;;8.57;3.28;;;17.50;99.90;;;;;;5076730;28;20115;-86
2022/05/04 11:06:55;;;;;;;5.68;3.22;;;17.30;99.90;;;;;;5091898;28;20151;-85
2022/05/04 11:09:29;;;;;;;4.93;2.63;;;17.20;99.90;;;;;;5098514;27;20028;-86
2022/05/04 11:12:04;;;;;;;5.55;2.25;;;17.10;99.90;;;;;;5076110;27;20086;-85
2022/05/04 11:14:32;;;;;;;5.57;2.23;;;17.40;99.90;;;;;;5100176;27;20040;-85
2022/05/04 11:16:58;;;;;;;7.35;2.85;;;17.60;99.90;;;;;;5092698;27;20289;-87
2022/05/04 11:19:26;;;;;;;5.10;2.72;;;17.70;99.90;;;;;;5088765;27;20028;-89
2022/05/04 11:21:54;;;;;;;8.02;2.58;;;17.70;99.90;;;;;;5093380;28;20040;-88
2022/05/04 11:24:19;;;;;;;5.82;2.60;;;17.70;99.90;;;;;;5091547;27;20081;-88
2022/05/04 11:26:50;;;;;;;7.07;2.40;;;17.90;99.90;;;;;;5097929;27;20044;-87
2022/05/04 11:29:28;;;;;;;5.95;2.15;;;18.20;99.90;;;;;;5095077;28;20046;-88
2022/05/04 11:31:59;;;;;;;10.10;1.77;;;18.50;99.90;;;;;;5096857;28;20127;-89
2022/05/04 11:34:31;;;;;;;3.65;1.73;;;18.80;99.90;;;;;;5105996;27;20040;-89
2022/05/04 11:37:01;;;;;;;4.88;1.27;;;19.10;98.90;;;;;;5101518;27;20040;-89
2022/05/04 11:39:28;;;;;;;9.75;1.70;;;19.30;93.80;;;;;;5109383;27;20068;-89
2022/05/04 11:41:56;;;;;;;4.55;1.35;;;19.70;94.40;;;;;;5106014;27;20058;-89
2022/05/04 11:44:24;;;;;;;3.88;1.77;;;20.00;90.20;;;;;;5107394;27;20586;-90
2022/05/04 11:46:51;;;;;;;4.75;1.88;;;20.00;93.20;;;;;;5099805;27;20080;-89
2022/05/04 11:49:20;;;;;;;3.53;1.20;;;19.90;86.10;;;;;;5104577;27;20542;-88
2022/05/04 11:51:46;;;;;;;3.05;1.10;;;19.70;80.20;;;;;;5110861;27;20058;-89
2022/05/04 11:54:12;;;;;;;2.83;0.70;;;19.60;71.60;;;;;;5099372;27;20036;-88
2022/05/04 11:56:38;;;;;;;7.78;1.20;;;19.70;75.50;;;;;;5108309;27;20031;-88
2022/05/04 11:59:07;;;;;;;3.42;1.25;;;19.80;79.70;;;;;;5109705;27;20508;-90
2022/05/04 12:01:33;;;;;;;3.28;1.42;;;19.90;83.70;;;;;;5106874;27;20161;-88
2022/05/04 12:04:00;;;;;;;1.40;0.90;;;20.10;64.40;;;;;;5105954;27;20072;-90
2022/05/04 12:06:26;;;;;;;4.43;1.00;;;20.30;68.10;;;;;;5103770;27;20385;-89
2022/05/04 12:08:54;;;;;;;2.80;1.23;;;20.50;66.00;;;;;;5106698;27;20043;-88
2022/05/04 12:11:22;;;;;;;2.40;1.27;;;20.80;63.10;;;;;;5107985;27;20114;-89
2022/05/04 12:13:48;;;;;;;3.85;1.10;;;20.90;60.40;;;;;;5101625;27;20054;-88
2022/05/04 12:16:14;;;;;;;2.28;1.48;;;21.00;55.80;;;;;;5107203;27;20391;-88
2022/05/04 12:18:40;;;;;;;2.13;0.90;;;21.20;54.60;;;;;;5104012;27;20123;-89
2022/05/04 12:21:16;;;;;;;3.75;1.48;;;21.30;53.20;;;;;;5108020;27;20131;-88
2022/05/04 12:23:43;;;;;;;4.05;1.15;;;21.30;52.90;;;;;;5096282;27;20045;-89
2022/05/04 12:26:11;;;;;;;2.80;1.35;;;21.30;49.20;;;;;;5092943;27;20044;-88
2022/05/04 12:28:38;;;;;;;2.40;1.27;;;21.40;46.70;;;;;;5097797;28;20090;-90
2022/05/04 12:33:48;;;;;;;7.20;2.33;;;21.50;47.80;;;;;;5108368;27;20557;-89
2022/05/04 12:36:19;;;;;;;4.13;1.45;;;21.80;49.80;;;;;;5110553;27;20502;-89
2022/05/04 12:38:48;;;;;;;2.65;0.90;;;22.00;45.40;;;;;;5089038;27;20039;-88
2022/05/04 12:41:17;;;;;;;3.50;1.10;;;22.30;43.50;;;;;;5097475;27;20127;-89
2022/05/04 12:43:43;;;;;;;3.58;1.38;;;22.40;42.20;;;;;;5094924;28;20036;-88
2022/05/04 12:46:15;;;;;;;3.10;1.70;;;22.40;39.10;;;;;;5111420;28;20057;-88
2022/05/04 12:48:42;;;;;;;2.53;1.10;;;22.40;39.30;;;;;;5112062;28;20057;-90
2022/05/04 12:51:09;;;;;;;4.35;1.70;;;22.40;41.00;;;;;;5112004;28;20035;-89
2022/05/04 12:53:37;;;;;;;2.65;0.98;;;22.60;42.30;;;;;;5112195;28;20019;-89
2022/05/04 12:58:49;;;;;;;1.90;0.90;;;22.70;40.50;;;;;;5113399;28;20108;-89
2022/05/04 13:01:15;;;;;;;3.90;1.00;;;22.50;40.80;;;;;;5094634;28;20027;-89
2022/05/04 13:03:40;;;;;;;4.93;1.27;;;22.40;39.40;;;;;;5094663;28;20051;-89
2022/05/04 13:06:06;;;;;;;5.03;0.93;;;22.40;40.90;;;;;;5095111;28;20074;-90
2022/05/04 13:08:32;;;;;;;3.35;1.35;;;22.30;42.60;;;;;;5094837;28;20119;-89
2022/05/04 13:10:58;;;;;;;2.47;1.23;;;22.30;42.40;;;;;;5092840;28;20035;-89
2022/05/04 13:13:25;;;;;;;6.68;1.77;;;22.30;43.40;;;;;;5105788;27;20023;-89
2022/05/04 13:15:51;;;;;;;5.82;1.85;;;22.20;49.10;;;;;;5106755;27;20039;-88
2022/05/04 13:18:18;;;;;;;4.60;2.08;;;22.00;56.00;;;;;;5106274;27;20046;-87
2022/05/04 13:20:44;;;;;;;6.43;2.22;;;21.70;57.90;;;;;;5105118;27;20036;-86
2022/05/04 13:23:10;;;;;;;4.57;2.45;;;21.50;59.50;;;;;;5102337;27;20040;-86
2022/05/04 13:25:36;;;;;;;8.60;2.50;;;21.30;64.10;;;;;;5091056;27;20143;-87
2022/05/04 13:28:02;;;;;;;5.80;2.50;;;21.20;73.80;;;;;;5102586;27;20167;-88
2022/05/04 13:30:28;;;;;;;3.28;1.98;;;21.20;78.90;;;;;;5091245;28;20036;-88
2022/05/04 13:32:54;;;;;;;2.65;1.63;;;21.20;78.50;;;;;;5092390;27;20040;-88
2022/05/04 13:35:20;;;;;;;2.30;1.70;;;21.20;76.10;;;;;;5098479;27;20036;-88